sensor_id;sensor_type;location;lat;lon;timestamp;temperature;humidity
5560;DHT22;2803;47.916;8.074;2023-05-14T00:00:39;12.50;99.90
5560;DHT22;2803;47.916;8.074;2023-05-14T00:03:06;12.60;99.90
5560;DHT22;2803;47.916;8.074;2023-05-14T00:05:33;12.50;99.90
5560;DHT22;2803;47.916;8.074;2023-05-14T00:07:59;12.60;99.90
5560;DHT22;2803;47.916;8.074;2023-05-14T00:10:26;12.70;99.90
5560;DHT22;2803;47.916;8.074;2023-05-14T00:12:53;12.80;99.90
5560;DHT22;2803;47.916;8.074;2023-05-14T00:15:20;12.80;99.90
5560;DHT22;2803;47.916;8.074;2023-05-14T00:17:48;12.90;99.90
5560;DHT22;2803;47.916;8.074;2023-05-14T00:20:15;12.70;99.90
5560;DHT22;2803;47.916;8.074;2023-05-14T00:22:41;12.70;99.90
5560;DHT22;2803;47.916;8.074;2023-05-14T00:25:08;12.80;99.90
5560;DHT22;2803;47.916;8.074;2023-05-14T00:27:35;12.90;99.90
5560;DHT22;2803;47.916;8.074;2023-05-14T00:30:03;12.90;99.90
5560;DHT22;2803;47.916;8.074;2023-05-14T00:32:30;13.00;99.90
5560;DHT22;2803;47.916;8.074;2023-05-14T00:34:58;13.00;99.90
5560;DHT22;2803;47.916;8.074;2023-05-14T00:37:25;13.00;99.90
5560;DHT22;2803;47.916;8.074;2023-05-14T00:39:51;13.00;99.90
5560;DHT22;2803;47.916;8.074;2023-05-14T00:42:18;13.00;99.90
5560;DHT22;2803;47.916;8.074;2023-05-14T00:44:44;13.10;99.90
5560;DHT22;2803;47.916;8.074;2023-05-14T00:47:11;13.10;99.90
5560;DHT22;2803;47.916;8.074;2023-05-14T00:49:38;13.20;99.90
5560;DHT22;2803;47.916;8.074;2023-05-14T00:52:06;13.20;99.90
5560;DHT22;2803;47.916;8.074;2023-05-14T00:54:34;13.10;99.90
5560;DHT22;2803;47.916;8.074;2023-05-14T00:57:02;13.00;99.90
5560;DHT22;2803;47.916;8.074;2023-05-14T00:59:28;13.00;99.90
5560;DHT22;2803;47.916;8.074;2023-05-14T01:01:55;13.10;99.90
5560;DHT22;2803;47.916;8.074;2023-05-14T01:04:22;13.10;99.90
5560;DHT22;2803;47.916;8.074;2023-05-14T01:06:57;13.10;99.90
5560;DHT22;2803;47.916;8.074;2023-05-14T01:09:35;13.10;99.90
5560;DHT22;2803;47.916;8.074;2023-05-14T01:12:08;13.20;99.90
5560;DHT22;2803;47.916;8.074;2023-05-14T01:14:39;13.30;99.90
5560;DHT22;2803;47.916;8.074;2023-05-14T01:17:10;13.40;99.90
5560;DHT22;2803;47.916;8.074;2023-05-14T01:19:39;13.40;99.90
5560;DHT22;2803;47.916;8.074;2023-05-14T01:22:07;13.40;99.90
5560;DHT22;2803;47.916;8.074;2023-05-14T01:24:35;13.40;99.90
5560;DHT22;2803;47.916;8.074;2023-05-14T01:27:07;13.50;99.90
5560;DHT22;2803;47.916;8.074;2023-05-14T01:29:38;13.30;99.90
5560;DHT22;2803;47.916;8.074;2023-05-14T01:32:07;13.40;99.90
5560;DHT22;2803;47.916;8.074;2023-05-14T01:34:35;13.40;99.90
5560;DHT22;2803;47.916;8.074;2023-05-14T01:37:03;13.40;99.90
5560;DHT22;2803;47.916;8.074;2023-05-14T01:39:34;13.50;99.90
5560;DHT22;2803;47.916;8.074;2023-05-14T01:42:02;13.60;99.90
5560;DHT22;2803;47.916;8.074;2023-05-14T01:44:29;13.60;99.90
5560;DHT22;2803;47.916;8.074;2023-05-14T01:46:56;13.60;99.90
5560;DHT22;2803;47.916;8.074;2023-05-14T01:49:23;13.60;99.90
5560;DHT22;2803;47.916;8.074;2023-05-14T01:51:49;13.60;99.90
5560;DHT22;2803;47.916;8.074;2023-05-14T01:54:16;13.60;99.90
5560;DHT22;2803;47.916;8.074;2023-05-14T01:56:44;13.60;99.90
5560;DHT22;2803;47.916;8.074;2023-05-14T01:59:10;13.60;99.90
5560;DHT22;2803;47.916;8.074;2023-05-14T02:01:37;13.50;99.90
5560;DHT22;2803;47.916;8.074;2023-05-14T02:04:04;13.60;99.90
5560;DHT22;2803;47.916;8.074;2023-05-14T02:06:30;13.70;99.90
5560;DHT22;2803;47.916;8.074;2023-05-14T02:08:57;13.80;99.90
5560;DHT22;2803;47.916;8.074;2023-05-14T02:11:23;13.80;99.90
5560;DHT22;2803;47.916;8.074;2023-05-14T02:13:51;13.80;99.90
5560;DHT22;2803;47.916;8.074;2023-05-14T02:16:18;13.90;99.90
5560;DHT22;2803;47.916;8.074;2023-05-14T02:18:45;13.90;99.90
5560;DHT22;2803;47.916;8.074;2023-05-14T02:21:11;13.90;99.90
5560;DHT22;2803;47.916;8.074;2023-05-14T02:23:38;13.90;99.90
5560;DHT22;2803;47.916;8.074;2023-05-14T02:26:05;13.80;99.90
5560;DHT22;2803;47.916;8.074;2023-05-14T02:28:32;13.80;99.90
5560;DHT22;2803;47.916;8.074;2023-05-14T02:31:00;14.00;99.90
5560;DHT22;2803;47.916;8.074;2023-05-14T02:33:27;13.90;99.90
5560;DHT22;2803;47.916;8.074;2023-05-14T02:35:54;14.00;99.90
5560;DHT22;2803;47.916;8.074;2023-05-14T02:38:21;14.00;99.90
5560;DHT22;2803;47.916;8.074;2023-05-14T02:40:47;14.00;99.90
5560;DHT22;2803;47.916;8.074;2023-05-14T02:43:14;13.90;99.90
5560;DHT22;2803;47.916;8.074;2023-05-14T02:45:40;13.80;99.90
5560;DHT22;2803;47.916;8.074;2023-05-14T02:48:08;13.90;99.90
5560;DHT22;2803;47.916;8.074;2023-05-14T02:50:35;13.80;99.90
5560;DHT22;2803;47.916;8.074;2023-05-14T02:53:02;13.70;99.90
5560;DHT22;2803;47.916;8.074;2023-05-14T02:55:28;13.70;99.90
5560;DHT22;2803;47.916;8.074;2023-05-14T02:57:55;13.70;99.90
5560;DHT22;2803;47.916;8.074;2023-05-14T03:00:22;13.80;99.90
5560;DHT22;2803;47.916;8.074;2023-05-14T03:02:49;14.00;99.90
5560;DHT22;2803;47.916;8.074;2023-05-14T03:05:16;14.10;99.90
5560;DHT22;2803;47.916;8.074;2023-05-14T03:07:43;13.70;99.90
5560;DHT22;2803;47.916;8.074;2023-05-14T03:10:10;13.50;99.90
5560;DHT22;2803;47.916;8.074;2023-05-14T03:12:36;13.60;99.90
5560;DHT22;2803;47.916;8.074;2023-05-14T03:15:03;13.40;99.90
5560;DHT22;2803;47.916;8.074;2023-05-14T03:17:30;13.60;99.90
5560;DHT22;2803;47.916;8.074;2023-05-14T03:19:57;13.70;99.90
5560;DHT22;2803;47.916;8.074;2023-05-14T03:22:25;13.80;99.90
5560;DHT22;2803;47.916;8.074;2023-05-14T03:24:51;13.80;99.90
5560;DHT22;2803;47.916;8.074;2023-05-14T03:27:18;13.90;99.90
5560;DHT22;2803;47.916;8.074;2023-05-14T03:29:45;13.90;99.90
5560;DHT22;2803;47.916;8.074;2023-05-14T03:32:11;13.80;99.90
5560;DHT22;2803;47.916;8.074;2023-05-14T03:34:38;14.00;99.90
5560;DHT22;2803;47.916;8.074;2023-05-14T03:37:05;13.90;99.90
5560;DHT22;2803;47.916;8.074;2023-05-14T03:39:33;13.80;99.90
5560;DHT22;2803;47.916;8.074;2023-05-14T03:41:59;13.80;99.90
5560;DHT22;2803;47.916;8.074;2023-05-14T03:44:26;14.00;99.90
5560;DHT22;2803;47.916;8.074;2023-05-14T03:46:53;14.00;99.90
5560;DHT22;2803;47.916;8.074;2023-05-14T03:49:20;14.00;99.90
5560;DHT22;2803;47.916;8.074;2023-05-14T03:51:46;14.10;99.90
5560;DHT22;2803;47.916;8.074;2023-05-14T03:54:13;14.00;99.90
5560;DHT22;2803;47.916;8.074;2023-05-14T03:56:41;14.00;99.90
5560;DHT22;2803;47.916;8.074;2023-05-14T03:59:08;14.10;99.90
5560;DHT22;2803;47.916;8.074;2023-05-14T04:01:34;14.10;99.90
5560;DHT22;2803;47.916;8.074;2023-05-14T04:04:01;14.20;99.90
5560;DHT22;2803;47.916;8.074;2023-05-14T04:06:27;14.20;99.90
5560;DHT22;2803;47.916;8.074;2023-05-14T04:08:54;14.30;99.90
5560;DHT22;2803;47.916;8.074;2023-05-14T04:11:21;14.30;99.90
5560;DHT22;2803;47.916;8.074;2023-05-14T04:13:49;14.30;99.90
5560;DHT22;2803;47.916;8.074;2023-05-14T04:16:15;14.30;99.90
5560;DHT22;2803;47.916;8.074;2023-05-14T04:18:42;14.30;99.90
5560;DHT22;2803;47.916;8.074;2023-05-14T04:21:08;14.30;99.90
5560;DHT22;2803;47.916;8.074;2023-05-14T04:23:35;14.30;99.90
5560;DHT22;2803;47.916;8.074;2023-05-14T04:26:02;14.30;99.90
5560;DHT22;2803;47.916;8.074;2023-05-14T04:28:29;14.30;99.90
5560;DHT22;2803;47.916;8.074;2023-05-14T04:30:57;14.40;99.90
5560;DHT22;2803;47.916;8.074;2023-05-14T04:33:23;14.30;99.90
5560;DHT22;2803;47.916;8.074;2023-05-14T04:35:51;14.30;99.90
5560;DHT22;2803;47.916;8.074;2023-05-14T04:38:18;14.30;99.90
5560;DHT22;2803;47.916;8.074;2023-05-14T04:40:44;14.30;99.90
5560;DHT22;2803;47.916;8.074;2023-05-14T04:43:11;14.30;99.90
5560;DHT22;2803;47.916;8.074;2023-05-14T04:45:37;14.30;99.90
5560;DHT22;2803;47.916;8.074;2023-05-14T04:48:06;14.30;99.90
5560;DHT22;2803;47.916;8.074;2023-05-14T04:50:33;14.20;99.90
5560;DHT22;2803;47.916;8.074;2023-05-14T04:53:00;14.20;99.90
5560;DHT22;2803;47.916;8.074;2023-05-14T04:55:27;14.20;99.90
5560;DHT22;2803;47.916;8.074;2023-05-14T04:57:54;14.20;99.90
5560;DHT22;2803;47.916;8.074;2023-05-14T05:00:20;13.80;99.90
5560;DHT22;2803;47.916;8.074;2023-05-14T05:02:47;13.80;99.90
5560;DHT22;2803;47.916;8.074;2023-05-14T05:05:15;14.00;99.90
5560;DHT22;2803;47.916;8.074;2023-05-14T05:07:42;14.10;99.90
5560;DHT22;2803;47.916;8.074;2023-05-14T05:10:08;14.30;99.90
5560;DHT22;2803;47.916;8.074;2023-05-14T05:12:35;14.30;99.90
5560;DHT22;2803;47.916;8.074;2023-05-14T05:15:02;14.30;99.90
5560;DHT22;2803;47.916;8.074;2023-05-14T05:17:29;14.40;99.90
5560;DHT22;2803;47.916;8.074;2023-05-14T05:19:56;14.30;99.90
5560;DHT22;2803;47.916;8.074;2023-05-14T05:22:23;14.40;99.90
5560;DHT22;2803;47.916;8.074;2023-05-14T05:24:50;14.30;99.90
5560;DHT22;2803;47.916;8.074;2023-05-14T05:27:17;14.20;99.90
5560;DHT22;2803;47.916;8.074;2023-05-14T05:29:45;14.20;99.90
5560;DHT22;2803;47.916;8.074;2023-05-14T05:32:12;14.30;99.90
5560;DHT22;2803;47.916;8.074;2023-05-14T05:34:38;14.30;99.90
5560;DHT22;2803;47.916;8.074;2023-05-14T05:37:05;14.40;99.90
5560;DHT22;2803;47.916;8.074;2023-05-14T05:39:34;14.60;99.90
5560;DHT22;2803;47.916;8.074;2023-05-14T05:42:01;14.60;99.90
5560;DHT22;2803;47.916;8.074;2023-05-14T05:44:28;14.70;99.90
5560;DHT22;2803;47.916;8.074;2023-05-14T05:46:55;14.80;99.90
5560;DHT22;2803;47.916;8.074;2023-05-14T05:49:22;14.80;99.90
5560;DHT22;2803;47.916;8.074;2023-05-14T05:51:48;14.80;99.90
5560;DHT22;2803;47.916;8.074;2023-05-14T05:54:15;14.80;99.90
5560;DHT22;2803;47.916;8.074;2023-05-14T05:56:43;14.70;99.90
5560;DHT22;2803;47.916;8.074;2023-05-14T05:59:09;14.80;99.90
5560;DHT22;2803;47.916;8.074;2023-05-14T06:01:36;14.80;99.90
5560;DHT22;2803;47.916;8.074;2023-05-14T06:04:05;14.80;99.90
5560;DHT22;2803;47.916;8.074;2023-05-14T06:06:31;14.80;99.90
5560;DHT22;2803;47.916;8.074;2023-05-14T06:08:58;14.80;99.90
5560;DHT22;2803;47.916;8.074;2023-05-14T06:11:26;14.80;99.90
5560;DHT22;2803;47.916;8.074;2023-05-14T06:13:54;14.80;99.90
5560;DHT22;2803;47.916;8.074;2023-05-14T06:16:20;14.90;99.90
5560;DHT22;2803;47.916;8.074;2023-05-14T06:18:47;14.90;99.90
5560;DHT22;2803;47.916;8.074;2023-05-14T06:21:14;14.90;99.90
5560;DHT22;2803;47.916;8.074;2023-05-14T06:23:40;14.80;99.90
5560;DHT22;2803;47.916;8.074;2023-05-14T06:26:07;14.90;99.90
5560;DHT22;2803;47.916;8.074;2023-05-14T06:28:34;15.00;99.90
5560;DHT22;2803;47.916;8.074;2023-05-14T06:31:01;15.10;99.90
5560;DHT22;2803;47.916;8.074;2023-05-14T06:33:28;15.10;99.90
5560;DHT22;2803;47.916;8.074;2023-05-14T06:35:55;15.00;99.90
5560;DHT22;2803;47.916;8.074;2023-05-14T06:38:22;15.10;99.90
5560;DHT22;2803;47.916;8.074;2023-05-14T06:40:49;15.20;99.90
5560;DHT22;2803;47.916;8.074;2023-05-14T06:43:16;15.30;99.90
5560;DHT22;2803;47.916;8.074;2023-05-14T06:45:42;15.40;99.90
5560;DHT22;2803;47.916;8.074;2023-05-14T06:48:10;15.50;99.90
5560;DHT22;2803;47.916;8.074;2023-05-14T06:50:37;15.20;99.90
5560;DHT22;2803;47.916;8.074;2023-05-14T06:53:04;15.30;99.90
5560;DHT22;2803;47.916;8.074;2023-05-14T06:55:30;15.30;99.90
5560;DHT22;2803;47.916;8.074;2023-05-14T06:57:57;15.40;99.90
5560;DHT22;2803;47.916;8.074;2023-05-14T07:00:24;15.30;99.90
5560;DHT22;2803;47.916;8.074;2023-05-14T07:02:50;15.50;99.90
5560;DHT22;2803;47.916;8.074;2023-05-14T07:05:18;15.50;99.90
5560;DHT22;2803;47.916;8.074;2023-05-14T07:07:45;15.40;99.90
5560;DHT22;2803;47.916;8.074;2023-05-14T07:10:11;15.50;99.90
5560;DHT22;2803;47.916;8.074;2023-05-14T07:12:38;15.70;99.90
5560;DHT22;2803;47.916;8.074;2023-05-14T07:15:05;15.70;99.90
5560;DHT22;2803;47.916;8.074;2023-05-14T07:17:32;15.60;99.90
5560;DHT22;2803;47.916;8.074;2023-05-14T07:19:59;15.50;99.90
5560;DHT22;2803;47.916;8.074;2023-05-14T07:22:26;15.00;99.90
5560;DHT22;2803;47.916;8.074;2023-05-14T07:24:53;15.10;99.90
5560;DHT22;2803;47.916;8.074;2023-05-14T07:27:20;15.30;99.90
5560;DHT22;2803;47.916;8.074;2023-05-14T07:29:46;15.30;99.90
5560;DHT22;2803;47.916;8.074;2023-05-14T07:32:13;15.30;99.90
5560;DHT22;2803;47.916;8.074;2023-05-14T07:34:39;15.30;99.90
5560;DHT22;2803;47.916;8.074;2023-05-14T07:37:06;15.40;99.90
5560;DHT22;2803;47.916;8.074;2023-05-14T07:39:34;15.50;99.90
5560;DHT22;2803;47.916;8.074;2023-05-14T07:42:01;15.60;99.90
5560;DHT22;2803;47.916;8.074;2023-05-14T07:44:27;15.60;99.90
5560;DHT22;2803;47.916;8.074;2023-05-14T07:46:54;15.70;99.90
5560;DHT22;2803;47.916;8.074;2023-05-14T07:49:21;15.80;99.90
5560;DHT22;2803;47.916;8.074;2023-05-14T07:51:47;15.80;99.90
5560;DHT22;2803;47.916;8.074;2023-05-14T07:54:14;15.80;99.90
5560;DHT22;2803;47.916;8.074;2023-05-14T07:56:42;15.80;99.90
5560;DHT22;2803;47.916;8.074;2023-05-14T07:59:08;16.00;99.90
5560;DHT22;2803;47.916;8.074;2023-05-14T08:01:35;15.90;99.90
5560;DHT22;2803;47.916;8.074;2023-05-14T08:04:02;15.80;99.90
5560;DHT22;2803;47.916;8.074;2023-05-14T08:06:28;16.00;99.90
5560;DHT22;2803;47.916;8.074;2023-05-14T08:08:55;15.70;99.90
5560;DHT22;2803;47.916;8.074;2023-05-14T08:11:21;15.90;99.90
5560;DHT22;2803;47.916;8.074;2023-05-14T08:13:49;15.60;99.90
5560;DHT22;2803;47.916;8.074;2023-05-14T08:16:16;15.20;99.90
5560;DHT22;2803;47.916;8.074;2023-05-14T08:18:43;15.30;99.90
5560;DHT22;2803;47.916;8.074;2023-05-14T08:21:09;15.60;99.90
5560;DHT22;2803;47.916;8.074;2023-05-14T08:23:36;15.40;99.90
5560;DHT22;2803;47.916;8.074;2023-05-14T08:26:02;15.30;99.90
5560;DHT22;2803;47.916;8.074;2023-05-14T08:28:29;15.40;99.90
5560;DHT22;2803;47.916;8.074;2023-05-14T08:30:57;15.50;99.90
5560;DHT22;2803;47.916;8.074;2023-05-14T08:33:24;15.60;99.90
5560;DHT22;2803;47.916;8.074;2023-05-14T08:35:51;15.50;99.90
5560;DHT22;2803;47.916;8.074;2023-05-14T08:38:18;15.50;99.90
5560;DHT22;2803;47.916;8.074;2023-05-14T08:40:47;15.70;99.90
5560;DHT22;2803;47.916;8.074;2023-05-14T08:43:18;15.70;99.90
5560;DHT22;2803;47.916;8.074;2023-05-14T08:45:47;15.60;99.90
5560;DHT22;2803;47.916;8.074;2023-05-14T08:48:17;15.60;99.90
5560;DHT22;2803;47.916;8.074;2023-05-14T08:50:44;15.70;99.90
5560;DHT22;2803;47.916;8.074;2023-05-14T08:53:10;15.70;99.90
5560;DHT22;2803;47.916;8.074;2023-05-14T08:55:37;15.40;99.90
5560;DHT22;2803;47.916;8.074;2023-05-14T08:58:04;15.00;99.90
5560;DHT22;2803;47.916;8.074;2023-05-14T09:00:30;15.10;99.90
5560;DHT22;2803;47.916;8.074;2023-05-14T09:02:58;15.40;99.90
5560;DHT22;2803;47.916;8.074;2023-05-14T09:05:27;15.40;99.90
5560;DHT22;2803;47.916;8.074;2023-05-14T09:07:53;15.50;99.90
5560;DHT22;2803;47.916;8.074;2023-05-14T09:10:20;15.30;99.90
5560;DHT22;2803;47.916;8.074;2023-05-14T09:12:47;15.30;99.90
5560;DHT22;2803;47.916;8.074;2023-05-14T09:15:13;15.70;99.90
5560;DHT22;2803;47.916;8.074;2023-05-14T09:17:40;15.70;99.90
5560;DHT22;2803;47.916;8.074;2023-05-14T09:20:08;15.90;99.90
5560;DHT22;2803;47.916;8.074;2023-05-14T09:22:37;16.00;99.90
5560;DHT22;2803;47.916;8.074;2023-05-14T09:25:06;16.40;99.90
5560;DHT22;2803;47.916;8.074;2023-05-14T09:27:34;16.40;99.90
5560;DHT22;2803;47.916;8.074;2023-05-14T09:30:07;16.60;99.90
5560;DHT22;2803;47.916;8.074;2023-05-14T09:32:36;16.60;99.90
5560;DHT22;2803;47.916;8.074;2023-05-14T09:35:10;16.50;99.90
5560;DHT22;2803;47.916;8.074;2023-05-14T09:37:40;16.50;99.90
5560;DHT22;2803;47.916;8.074;2023-05-14T09:40:08;16.60;99.90
5560;DHT22;2803;47.916;8.074;2023-05-14T09:42:35;16.60;99.90
5560;DHT22;2803;47.916;8.074;2023-05-14T09:45:03;17.00;99.90
5560;DHT22;2803;47.916;8.074;2023-05-14T09:47:30;17.20;99.90
5560;DHT22;2803;47.916;8.074;2023-05-14T09:49:57;17.10;99.90
5560;DHT22;2803;47.916;8.074;2023-05-14T09:52:24;16.90;99.90
5560;DHT22;2803;47.916;8.074;2023-05-14T09:54:52;17.30;99.90
5560;DHT22;2803;47.916;8.074;2023-05-14T09:57:19;17.30;99.90
5560;DHT22;2803;47.916;8.074;2023-05-14T09:59:45;17.00;99.90
5560;DHT22;2803;47.916;8.074;2023-05-14T10:02:22;17.20;99.90
5560;DHT22;2803;47.916;8.074;2023-05-14T10:04:49;17.40;99.90
5560;DHT22;2803;47.916;8.074;2023-05-14T10:07:20;17.40;99.90
5560;DHT22;2803;47.916;8.074;2023-05-14T10:09:47;17.40;99.90
5560;DHT22;2803;47.916;8.074;2023-05-14T10:12:19;17.70;99.90
5560;DHT22;2803;47.916;8.074;2023-05-14T10:14:47;17.70;99.90
5560;DHT22;2803;47.916;8.074;2023-05-14T10:17:18;17.70;99.90
5560;DHT22;2803;47.916;8.074;2023-05-14T10:19:49;17.60;99.90
5560;DHT22;2803;47.916;8.074;2023-05-14T10:22:20;17.60;99.90
5560;DHT22;2803;47.916;8.074;2023-05-14T10:24:47;17.80;99.90
5560;DHT22;2803;47.916;8.074;2023-05-14T10:27:18;17.90;99.90
5560;DHT22;2803;47.916;8.074;2023-05-14T10:29:50;17.90;99.90
5560;DHT22;2803;47.916;8.074;2023-05-14T10:32:19;18.00;99.90
5560;DHT22;2803;47.916;8.074;2023-05-14T10:34:46;17.50;99.90
5560;DHT22;2803;47.916;8.074;2023-05-14T10:37:15;17.50;99.90
5560;DHT22;2803;47.916;8.074;2023-05-14T10:39:44;17.00;99.90
5560;DHT22;2803;47.916;8.074;2023-05-14T10:42:11;16.70;99.90
5560;DHT22;2803;47.916;8.074;2023-05-14T10:44:46;17.10;99.90
5560;DHT22;2803;47.916;8.074;2023-05-14T10:47:14;16.60;99.90
5560;DHT22;2803;47.916;8.074;2023-05-14T10:49:41;16.70;99.90
5560;DHT22;2803;47.916;8.074;2023-05-14T10:52:09;16.50;99.90
5560;DHT22;2803;47.916;8.074;2023-05-14T10:54:36;16.90;99.90
5560;DHT22;2803;47.916;8.074;2023-05-14T10:57:03;17.30;99.90
5560;DHT22;2803;47.916;8.074;2023-05-14T10:59:35;17.50;99.90
5560;DHT22;2803;47.916;8.074;2023-05-14T11:02:05;17.70;99.90
5560;DHT22;2803;47.916;8.074;2023-05-14T11:04:57;17.20;99.90
5560;DHT22;2803;47.916;8.074;2023-05-14T11:07:27;17.00;99.90
5560;DHT22;2803;47.916;8.074;2023-05-14T11:09:59;16.50;99.90
5560;DHT22;2803;47.916;8.074;2023-05-14T11:12:27;16.00;99.90
5560;DHT22;2803;47.916;8.074;2023-05-14T11:14:55;15.70;99.90
5560;DHT22;2803;47.916;8.074;2023-05-14T11:17:24;16.00;99.90
5560;DHT22;2803;47.916;8.074;2023-05-14T11:19:50;16.20;99.90
5560;DHT22;2803;47.916;8.074;2023-05-14T11:22:17;15.90;99.90
5560;DHT22;2803;47.916;8.074;2023-05-14T11:24:43;15.70;99.90
5560;DHT22;2803;47.916;8.074;2023-05-14T11:27:10;15.40;99.90
5560;DHT22;2803;47.916;8.074;2023-05-14T11:29:37;15.30;99.90
5560;DHT22;2803;47.916;8.074;2023-05-14T11:32:05;15.70;99.90
5560;DHT22;2803;47.916;8.074;2023-05-14T11:34:33;15.60;99.90
5560;DHT22;2803;47.916;8.074;2023-05-14T11:37:02;15.70;99.90
5560;DHT22;2803;47.916;8.074;2023-05-14T11:39:30;15.60;99.90
5560;DHT22;2803;47.916;8.074;2023-05-14T11:41:57;15.70;99.90
5560;DHT22;2803;47.916;8.074;2023-05-14T11:44:24;15.60;99.90
5560;DHT22;2803;47.916;8.074;2023-05-14T11:46:54;15.80;99.90
5560;DHT22;2803;47.916;8.074;2023-05-14T11:49:21;15.70;99.90
5560;DHT22;2803;47.916;8.074;2023-05-14T11:51:55;16.10;99.90
5560;DHT22;2803;47.916;8.074;2023-05-14T11:54:24;16.50;99.90
5560;DHT22;2803;47.916;8.074;2023-05-14T11:56:51;16.80;99.90
5560;DHT22;2803;47.916;8.074;2023-05-14T11:59:18;16.60;99.90
5560;DHT22;2803;47.916;8.074;2023-05-14T12:01:44;16.70;99.90
5560;DHT22;2803;47.916;8.074;2023-05-14T12:04:11;16.90;99.90
5560;DHT22;2803;47.916;8.074;2023-05-14T12:06:38;16.90;99.90
5560;DHT22;2803;47.916;8.074;2023-05-14T12:09:06;16.80;99.90
5560;DHT22;2803;47.916;8.074;2023-05-14T12:11:35;17.50;99.90
5560;DHT22;2803;47.916;8.074;2023-05-14T12:14:09;17.60;99.90
5560;DHT22;2803;47.916;8.074;2023-05-14T12:16:39;18.10;99.90
5560;DHT22;2803;47.916;8.074;2023-05-14T12:19:07;18.10;99.90
5560;DHT22;2803;47.916;8.074;2023-05-14T12:21:35;18.00;99.90
5560;DHT22;2803;47.916;8.074;2023-05-14T12:24:02;17.70;99.90
5560;DHT22;2803;47.916;8.074;2023-05-14T12:26:32;17.60;99.90
5560;DHT22;2803;47.916;8.074;2023-05-14T12:29:00;17.20;99.90
5560;DHT22;2803;47.916;8.074;2023-05-14T12:31:27;16.50;99.90
5560;DHT22;2803;47.916;8.074;2023-05-14T12:33:54;16.20;99.90
5560;DHT22;2803;47.916;8.074;2023-05-14T12:36:21;16.50;99.90
5560;DHT22;2803;47.916;8.074;2023-05-14T12:38:48;16.50;99.90
5560;DHT22;2803;47.916;8.074;2023-05-14T12:41:14;15.70;99.90
5560;DHT22;2803;47.916;8.074;2023-05-14T12:43:43;15.70;99.90
5560;DHT22;2803;47.916;8.074;2023-05-14T12:46:10;15.70;99.90
5560;DHT22;2803;47.916;8.074;2023-05-14T12:48:36;15.90;99.90
5560;DHT22;2803;47.916;8.074;2023-05-14T12:51:03;16.40;99.90
5560;DHT22;2803;47.916;8.074;2023-05-14T12:53:30;16.90;99.90
5560;DHT22;2803;47.916;8.074;2023-05-14T12:55:57;17.00;99.90
5560;DHT22;2803;47.916;8.074;2023-05-14T12:58:24;17.30;99.90
5560;DHT22;2803;47.916;8.074;2023-05-14T13:00:51;18.10;99.90
5560;DHT22;2803;47.916;8.074;2023-05-14T13:03:18;18.50;99.90
5560;DHT22;2803;47.916;8.074;2023-05-14T13:05:45;18.50;99.90
5560;DHT22;2803;47.916;8.074;2023-05-14T13:08:12;18.50;99.90
5560;DHT22;2803;47.916;8.074;2023-05-14T13:10:42;18.50;99.90
5560;DHT22;2803;47.916;8.074;2023-05-14T13:13:09;18.50;99.90
5560;DHT22;2803;47.916;8.074;2023-05-14T13:15:36;18.30;99.90
5560;DHT22;2803;47.916;8.074;2023-05-14T13:18:04;18.20;99.90
5560;DHT22;2803;47.916;8.074;2023-05-14T13:20:32;18.20;99.90
5560;DHT22;2803;47.916;8.074;2023-05-14T13:22:59;18.00;99.90
5560;DHT22;2803;47.916;8.074;2023-05-14T13:25:26;18.00;99.90
5560;DHT22;2803;47.916;8.074;2023-05-14T13:27:52;18.00;99.90
5560;DHT22;2803;47.916;8.074;2023-05-14T13:30:19;18.10;99.90
5560;DHT22;2803;47.916;8.074;2023-05-14T13:32:46;18.10;99.90
5560;DHT22;2803;47.916;8.074;2023-05-14T13:35:14;17.60;99.90
5560;DHT22;2803;47.916;8.074;2023-05-14T13:37:42;17.10;99.90
5560;DHT22;2803;47.916;8.074;2023-05-14T13:40:09;17.30;99.90
5560;DHT22;2803;47.916;8.074;2023-05-14T13:42:36;17.40;99.90
5560;DHT22;2803;47.916;8.074;2023-05-14T13:45:04;17.40;99.90
5560;DHT22;2803;47.916;8.074;2023-05-14T13:47:31;17.40;99.90
5560;DHT22;2803;47.916;8.074;2023-05-14T13:49:58;17.50;99.90
5560;DHT22;2803;47.916;8.074;2023-05-14T13:52:26;17.70;99.90
5560;DHT22;2803;47.916;8.074;2023-05-14T13:54:53;17.70;99.90
5560;DHT22;2803;47.916;8.074;2023-05-14T13:57:20;17.80;99.90
5560;DHT22;2803;47.916;8.074;2023-05-14T13:59:47;17.80;99.90
5560;DHT22;2803;47.916;8.074;2023-05-14T14:02:14;17.70;99.90
5560;DHT22;2803;47.916;8.074;2023-05-14T14:04:42;17.40;99.90
5560;DHT22;2803;47.916;8.074;2023-05-14T14:07:08;16.00;99.90
5560;DHT22;2803;47.916;8.074;2023-05-14T14:09:36;16.40;99.90
5560;DHT22;2803;47.916;8.074;2023-05-14T14:12:03;16.60;99.90
5560;DHT22;2803;47.916;8.074;2023-05-14T14:14:30;16.80;99.90
5560;DHT22;2803;47.916;8.074;2023-05-14T14:16:56;17.20;99.90
5560;DHT22;2803;47.916;8.074;2023-05-14T14:19:23;17.00;99.90
5560;DHT22;2803;47.916;8.074;2023-05-14T14:21:50;17.80;99.90
5560;DHT22;2803;47.916;8.074;2023-05-14T14:24:16;18.20;99.90
5560;DHT22;2803;47.916;8.074;2023-05-14T14:26:44;18.00;99.90
5560;DHT22;2803;47.916;8.074;2023-05-14T14:29:11;18.70;99.90
5560;DHT22;2803;47.916;8.074;2023-05-14T14:31:37;19.30;99.90
5560;DHT22;2803;47.916;8.074;2023-05-14T14:34:04;19.40;99.90
5560;DHT22;2803;47.916;8.074;2023-05-14T14:36:30;19.70;99.90
5560;DHT22;2803;47.916;8.074;2023-05-14T14:38:57;19.70;99.90
5560;DHT22;2803;47.916;8.074;2023-05-14T14:41:24;19.50;99.90
5560;DHT22;2803;47.916;8.074;2023-05-14T14:43:52;19.40;99.90
5560;DHT22;2803;47.916;8.074;2023-05-14T14:46:18;18.80;99.90
5560;DHT22;2803;47.916;8.074;2023-05-14T14:48:45;18.40;99.90
5560;DHT22;2803;47.916;8.074;2023-05-14T14:51:12;18.60;99.90
5560;DHT22;2803;47.916;8.074;2023-05-14T14:53:38;18.80;99.90
5560;DHT22;2803;47.916;8.074;2023-05-14T14:56:05;19.10;99.90
5560;DHT22;2803;47.916;8.074;2023-05-14T14:58:32;18.80;99.90
5560;DHT22;2803;47.916;8.074;2023-05-14T15:01:00;18.70;99.90
5560;DHT22;2803;47.916;8.074;2023-05-14T15:03:27;18.80;99.90
5560;DHT22;2803;47.916;8.074;2023-05-14T15:05:53;18.20;99.90
5560;DHT22;2803;47.916;8.074;2023-05-14T15:08:23;17.50;99.90
5560;DHT22;2803;47.916;8.074;2023-05-14T15:10:50;17.10;99.90
5560;DHT22;2803;47.916;8.074;2023-05-14T15:13:17;16.80;99.90
5560;DHT22;2803;47.916;8.074;2023-05-14T15:15:44;17.20;99.90
5560;DHT22;2803;47.916;8.074;2023-05-14T15:18:12;17.60;99.90
5560;DHT22;2803;47.916;8.074;2023-05-14T15:20:38;18.00;99.90
5560;DHT22;2803;47.916;8.074;2023-05-14T15:23:05;18.30;99.90
5560;DHT22;2803;47.916;8.074;2023-05-14T15:25:32;18.60;99.90
5560;DHT22;2803;47.916;8.074;2023-05-14T15:27:58;18.50;99.90
5560;DHT22;2803;47.916;8.074;2023-05-14T15:30:25;18.40;99.90
5560;DHT22;2803;47.916;8.074;2023-05-14T15:32:53;18.30;99.90
5560;DHT22;2803;47.916;8.074;2023-05-14T15:35:22;18.10;99.90
5560;DHT22;2803;47.916;8.074;2023-05-14T15:37:49;18.40;99.90
5560;DHT22;2803;47.916;8.074;2023-05-14T15:40:18;18.70;99.90
5560;DHT22;2803;47.916;8.074;2023-05-14T15:42:44;18.90;99.90
5560;DHT22;2803;47.916;8.074;2023-05-14T15:45:12;18.60;99.90
5560;DHT22;2803;47.916;8.074;2023-05-14T15:47:38;18.80;99.90
5560;DHT22;2803;47.916;8.074;2023-05-14T15:50:06;18.80;99.90
5560;DHT22;2803;47.916;8.074;2023-05-14T15:52:34;18.90;99.90
5560;DHT22;2803;47.916;8.074;2023-05-14T15:55:01;18.90;99.90
5560;DHT22;2803;47.916;8.074;2023-05-14T15:57:28;18.70;99.90
5560;DHT22;2803;47.916;8.074;2023-05-14T15:59:56;18.90;99.90
5560;DHT22;2803;47.916;8.074;2023-05-14T16:02:22;19.00;99.90